Time,TemperatureF,DewpointF,PressureIn,WindDirection,WindDirectionDegrees,WindSpeedMPH,WindSpeedGustMPH,Humidity,HourlyPrecipIn,Conditions,Clouds,dailyrainin,SoftwareType,DateUTC
2014-08-22 00:01:00,68.5,62.1,30.04,SE,146,2.9,4.0,80,0.00,,,0.00,meteobridge,2014-08-22 04:01:00,
2014-08-22 00:04:00,68.5,62.1,30.04,SSE,166,2.9,3.0,80,0.00,,,0.00,meteobridge,2014-08-22 04:04:00,
2014-08-22 00:09:00,68.7,62.2,30.05,South,178,2.0,5.0,80,0.00,,,0.00,meteobridge,2014-08-22 04:09:00,
2014-08-22 00:14:00,68.5,61.7,30.04,SSW,213,0.0,2.0,79,0.00,,,0.00,meteobridge,2014-08-22 04:14:00,
2014-08-22 00:19:00,68.4,61.9,30.04,SSW,213,0.9,1.0,80,0.00,,,0.00,meteobridge,2014-08-22 04:19:00,
2014-08-22 00:24:00,68.0,61.9,30.04,SSW,213,2.0,3.0,81,0.00,,,0.00,meteobridge,2014-08-22 04:24:00,
2014-08-22 00:30:00,67.6,62.2,30.04,North,5,0.9,3.0,83,0.00,,,0.00,meteobridge,2014-08-22 04:30:00,
2014-08-22 00:35:00,67.5,62.8,30.03,North,5,2.0,2.0,85,0.00,,,0.00,meteobridge,2014-08-22 04:35:00,
2014-08-22 00:40:00,67.1,62.4,30.03,North,5,0.0,1.0,85,0.00,,,0.00,meteobridge,2014-08-22 04:40:00,
2014-08-22 00:45:00,67.1,62.8,30.03,North,5,0.0,1.0,86,0.00,,,0.00,meteobridge,2014-08-22 04:45:00,
2014-08-22 00:50:00,67.1,62.8,30.03,North,5,0.0,1.0,86,0.00,,,0.00,meteobridge,2014-08-22 04:50:00,
2014-08-22 00:55:00,67.3,63.3,30.03,North,5,0.0,1.0,87,0.00,,,0.00,meteobridge,2014-08-22 04:55:00,
2014-08-22 01:00:00,67.3,63.0,30.03,North,5,2.0,2.0,86,0.00,,,0.00,meteobridge,2014-08-22 05:00:00,
2014-08-22 01:05:00,67.3,63.0,30.03,North,5,0.0,1.0,86,0.00,,,0.00,meteobridge,2014-08-22 05:05:00,
2014-08-22 01:10:00,67.3,63.0,30.03,North,5,0.0,1.0,86,0.00,,,0.00,meteobridge,2014-08-22 05:10:00,
2014-08-22 01:15:00,67.3,63.0,30.03,North,5,0.0,1.0,86,0.00,,,0.00,meteobridge,2014-08-22 05:15:00,
2014-08-22 01:20:00,67.5,63.1,30.03,NNE,17,2.0,2.0,86,0.00,,,0.00,meteobridge,2014-08-22 05:20:00,
2014-08-22 01:25:00,67.6,63.7,30.03,NNE,23,2.0,2.0,87,0.00,,,0.00,meteobridge,2014-08-22 05:25:00,
2014-08-22 01:30:00,67.5,63.5,30.02,NNE,22,0.9,3.0,87,0.00,,,0.00,meteobridge,2014-08-22 05:30:00,
2014-08-22 01:35:00,67.3,63.3,30.02,NNE,22,2.0,2.0,87,0.00,,,0.00,meteobridge,2014-08-22 05:35:00,
2014-08-22 01:40:00,66.9,63.0,30.02,NNE,22,0.9,2.0,87,0.00,,,0.00,meteobridge,2014-08-22 05:40:00,
2014-08-22 01:45:00,66.9,63.0,30.02,NNE,22,0.9,2.0,87,0.00,,,0.00,meteobridge,2014-08-22 05:45:00,
2014-08-22 01:50:00,66.9,63.3,30.02,NNE,22,2.0,2.0,88,0.00,,,0.00,meteobridge,2014-08-22 05:50:00,
2014-08-22 01:55:00,66.9,63.3,30.03,NNE,22,0.9,2.0,88,0.00,,,0.00,meteobridge,2014-08-22 05:55:00,
2014-08-22 02:00:00,67.1,63.5,30.03,NNE,22,0.9,2.0,88,0.00,,,0.00,meteobridge,2014-08-22 06:00:00,
2014-08-22 02:05:00,66.9,63.3,30.03,NNE,22,0.9,1.0,88,0.00,,,0.00,meteobridge,2014-08-22 06:05:00,
2014-08-22 02:10:00,66.9,63.3,30.03,NNE,22,2.0,2.0,88,0.00,,,0.00,meteobridge,2014-08-22 06:10:00,
2014-08-22 02:15:00,67.1,63.5,30.03,NNE,19,2.0,2.0,88,0.00,,,0.00,meteobridge,2014-08-22 06:15:00,
2014-08-22 02:20:00,67.1,63.5,30.03,NNE,18,2.0,3.0,88,0.00,,,0.00,meteobridge,2014-08-22 06:20:00,
2014-08-22 02:25:00,67.1,63.5,30.02,North,0,2.0,3.0,88,0.00,,,0.00,meteobridge,2014-08-22 06:25:00,
2014-08-22 02:30:00,67.1,63.5,30.02,North,0,2.0,3.0,88,0.00,,,0.00,meteobridge,2014-08-22 06:30:00,
2014-08-22 02:35:00,66.9,63.3,30.02,North,355,2.0,3.0,88,0.00,,,0.00,meteobridge,2014-08-22 06:35:00,
2014-08-22 02:40:00,66.9,63.3,30.02,North,11,2.0,4.0,88,0.00,,,0.00,meteobridge,2014-08-22 06:40:00,
2014-08-22 02:45:00,66.9,63.5,30.02,NNE,24,4.0,5.0,89,0.00,,,0.00,meteobridge,2014-08-22 06:45:00,
2014-08-22 02:50:00,66.9,63.5,30.02,NNE,32,2.0,5.0,89,0.00,,,0.00,meteobridge,2014-08-22 06:50:00,
2014-08-22 02:55:00,67.3,63.9,30.02,NE,55,6.0,9.0,89,0.00,,,0.00,meteobridge,2014-08-22 06:55:00,
2014-08-22 03:00:00,67.5,64.0,30.02,NE,40,4.9,7.0,89,0.00,,,0.00,meteobridge,2014-08-22 07:00:00,
2014-08-22 03:05:00,67.6,64.0,30.02,ENE,59,4.0,8.0,88,0.00,,,0.00,meteobridge,2014-08-22 07:05:00,
2014-08-22 03:10:00,67.6,63.7,30.02,ENE,70,2.9,9.0,87,0.00,,,0.00,meteobridge,2014-08-22 07:10:00,
2014-08-22 03:15:00,67.6,63.7,30.02,NE,43,4.9,7.0,87,0.00,,,0.00,meteobridge,2014-08-22 07:15:00,
2014-08-22 03:20:00,67.6,63.7,30.02,ENE,63,4.0,6.0,87,0.00,,,0.00,meteobridge,2014-08-22 07:20:00,
2014-08-22 03:25:00,67.8,63.9,30.02,ENE,61,6.0,6.0,87,0.00,,,0.00,meteobridge,2014-08-22 07:25:00,
2014-08-22 03:31:00,67.8,63.9,30.02,NE,48,6.9,10.0,87,0.00,,,0.00,meteobridge,2014-08-22 07:31:00,
2014-08-22 03:36:00,67.8,63.9,30.02,NE,49,4.0,8.0,87,0.00,,,0.00,meteobridge,2014-08-22 07:36:00,
2014-08-22 03:41:00,67.6,64.0,30.02,NE,46,6.0,10.0,88,0.00,,,0.00,meteobridge,2014-08-22 07:41:00,
2014-08-22 03:46:00,67.6,64.0,30.03,NNE,17,4.0,5.0,88,0.00,,,0.00,meteobridge,2014-08-22 07:46:00,
2014-08-22 03:51:00,67.6,64.2,30.03,ENE,59,4.9,9.0,89,0.00,,,0.00,meteobridge,2014-08-22 07:51:00,
2014-08-22 03:56:00,67.5,64.0,30.03,NE,40,4.9,6.0,89,0.00,,,0.00,meteobridge,2014-08-22 07:56:00,
2014-08-22 04:01:00,67.5,64.0,30.03,East,81,4.9,8.0,89,0.00,,,0.00,meteobridge,2014-08-22 08:01:00,
2014-08-22 04:06:00,67.3,63.9,30.03,NNE,22,2.9,9.0,89,0.00,,,0.00,meteobridge,2014-08-22 08:06:00,
2014-08-22 04:11:00,67.5,64.4,30.03,ENE,73,2.9,9.0,90,0.00,,,0.00,meteobridge,2014-08-22 08:11:00,
2014-08-22 04:16:00,67.3,64.2,30.03,NE,38,2.9,8.0,90,0.00,,,0.01,meteobridge,2014-08-22 08:16:00,
2014-08-22 04:21:00,67.1,64.0,30.03,ENE,59,8.9,9.0,90,0.01,,,0.01,meteobridge,2014-08-22 08:21:00,
2014-08-22 04:26:00,66.9,64.2,30.02,ENE,67,4.9,8.0,91,0.01,,,0.01,meteobridge,2014-08-22 08:26:00,
2014-08-22 04:31:00,66.7,64.0,30.02,NE,55,6.0,9.0,91,0.02,,,0.03,meteobridge,2014-08-22 08:31:00,
2014-08-22 04:36:00,66.6,63.9,30.02,NNE,29,4.9,10.0,91,0.04,,,0.04,meteobridge,2014-08-22 08:36:00,
2014-08-22 04:41:00,66.6,64.2,30.02,NNE,24,6.0,10.0,92,0.06,,,0.07,meteobridge,2014-08-22 08:41:00,
2014-08-22 04:46:00,66.4,64.0,30.02,NE,51,6.9,10.0,92,0.09,,,0.09,meteobridge,2014-08-22 08:46:00,
2014-08-22 04:51:00,66.2,63.9,30.02,NE,50,6.9,10.0,92,0.09,,,0.09,meteobridge,2014-08-22 08:51:00,
2014-08-22 04:56:00,66.0,63.7,30.02,ENE,58,4.9,10.0,92,0.09,,,0.09,meteobridge,2014-08-22 08:56:00,
2014-08-22 05:01:00,66.0,63.7,30.02,ENE,69,8.1,10.0,92,0.09,,,0.09,meteobridge,2014-08-22 09:01:00,
2014-08-22 05:06:00,65.5,62.8,30.02,NNE,30,4.9,12.0,91,0.09,,,0.09,meteobridge,2014-08-22 09:06:00,
2014-08-22 05:11:00,65.7,63.3,30.02,NE,34,2.9,6.0,92,0.09,,,0.09,meteobridge,2014-08-22 09:11:00,
2014-08-22 05:16:00,65.8,63.5,30.02,North,351,2.9,5.0,92,0.08,,,0.09,meteobridge,2014-08-22 09:16:00,
2014-08-22 05:21:00,65.8,63.5,30.02,NNE,22,2.0,6.0,92,0.08,,,0.09,meteobridge,2014-08-22 09:21:00,
2014-08-22 05:26:00,65.8,63.7,30.02,NE,49,4.9,10.0,93,0.07,,,0.09,meteobridge,2014-08-22 09:26:00,
2014-08-22 05:31:00,66.0,63.9,30.02,NE,34,4.9,12.0,93,0.06,,,0.09,meteobridge,2014-08-22 09:31:00,
2014-08-22 05:36:00,66.0,63.9,30.02,NNE,32,8.1,11.0,93,0.05,,,0.09,meteobridge,2014-08-22 09:36:00,
2014-08-22 05:41:00,66.0,63.9,30.02,NE,52,6.9,13.0,93,0.01,,,0.09,meteobridge,2014-08-22 09:41:00,
2014-08-22 05:46:00,66.2,64.0,30.02,NE,38,8.9,9.0,93,0.00,,,0.09,meteobridge,2014-08-22 09:46:00,
2014-08-22 05:51:00,66.4,64.2,30.02,ENE,58,4.0,9.0,93,0.00,,,0.09,meteobridge,2014-08-22 09:51:00,
2014-08-22 05:56:00,66.2,64.0,30.03,NE,47,8.9,11.0,93,0.00,,,0.09,meteobridge,2014-08-22 09:56:00,
2014-08-22 06:01:00,66.2,64.0,30.03,NNE,15,2.9,10.0,93,0.00,,,0.09,meteobridge,2014-08-22 10:01:00,
2014-08-22 06:06:00,66.2,64.0,30.03,ENE,69,6.0,9.0,93,0.00,,,0.09,meteobridge,2014-08-22 10:06:00,
2014-08-22 06:11:00,66.4,64.2,30.03,NE,55,6.0,7.0,93,0.00,,,0.09,meteobridge,2014-08-22 10:11:00,
2014-08-22 06:16:00,66.4,64.2,30.03,NE,50,8.9,10.0,93,0.00,,,0.09,meteobridge,2014-08-22 10:16:00,
2014-08-22 06:21:00,66.4,64.2,30.03,NE,35,4.9,8.0,93,0.00,,,0.09,meteobridge,2014-08-22 10:21:00,
2014-08-22 06:27:00,66.4,64.2,30.03,NE,54,4.9,9.0,93,0.00,,,0.09,meteobridge,2014-08-22 10:27:00,
2014-08-22 06:32:00,66.4,64.2,30.03,NNE,29,4.9,8.0,93,0.00,,,0.09,meteobridge,2014-08-22 10:32:00,
2014-08-22 06:37:00,66.4,64.2,30.03,NE,42,6.9,10.0,93,0.00,,,0.09,meteobridge,2014-08-22 10:37:00,
2014-08-22 06:42:00,66.6,64.4,30.03,ENE,67,8.9,12.0,93,0.00,,,0.09,meteobridge,2014-08-22 10:42:00,
2014-08-22 06:47:00,66.6,64.4,30.03,ENE,62,10.1,12.0,93,0.00,,,0.09,meteobridge,2014-08-22 10:47:00,
2014-08-22 06:52:00,66.6,64.4,30.03,NNE,29,4.9,12.0,93,0.00,,,0.09,meteobridge,2014-08-22 10:52:00,
2014-08-22 06:57:00,66.4,64.2,30.03,ENE,64,4.0,12.0,93,0.00,,,0.09,meteobridge,2014-08-22 10:57:00,
2014-08-22 07:02:00,66.4,64.2,30.03,ENE,60,4.0,12.0,93,0.00,,,0.09,meteobridge,2014-08-22 11:02:00,
2014-08-22 07:07:00,66.6,64.4,30.03,NE,53,4.9,11.0,93,0.00,,,0.09,meteobridge,2014-08-22 11:07:00,
2014-08-22 07:12:00,66.6,64.4,30.03,NNE,32,4.9,9.0,93,0.00,,,0.09,meteobridge,2014-08-22 11:12:00,
2014-08-22 07:17:00,66.6,64.4,30.03,NE,43,6.0,10.0,93,0.00,,,0.09,meteobridge,2014-08-22 11:17:00,
2014-08-22 07:22:00,66.7,64.9,30.03,ENE,64,4.9,9.0,94,0.00,,,0.09,meteobridge,2014-08-22 11:22:00,
2014-08-22 07:27:00,66.7,64.9,30.03,NNE,25,4.9,11.0,94,0.00,,,0.09,meteobridge,2014-08-22 11:27:00,
2014-08-22 07:32:00,66.7,64.9,30.03,East,86,8.9,10.0,94,0.00,,,0.09,meteobridge,2014-08-22 11:32:00,
2014-08-22 07:37:00,66.7,64.9,30.03,ENE,61,8.1,10.0,94,0.00,,,0.09,meteobridge,2014-08-22 11:37:00,
2014-08-22 07:42:00,66.7,64.9,30.03,ENE,65,6.0,11.0,94,0.00,,,0.09,meteobridge,2014-08-22 11:42:00,
2014-08-22 07:47:00,66.7,64.9,30.03,ENE,68,4.9,11.0,94,0.00,,,0.09,meteobridge,2014-08-22 11:47:00,
2014-08-22 07:52:00,66.7,64.9,30.03,NE,34,6.0,11.0,94,0.00,,,0.09,meteobridge,2014-08-22 11:52:00,
2014-08-22 07:57:00,66.9,65.1,30.03,NE,44,6.9,10.0,94,0.00,,,0.09,meteobridge,2014-08-22 11:57:00,
2014-08-22 08:02:00,66.7,64.6,30.03,NE,37,6.9,11.0,93,0.00,,,0.09,meteobridge,2014-08-22 12:02:00,
2014-08-22 08:07:00,66.9,64.8,30.03,NE,37,8.9,12.0,93,0.00,,,0.09,meteobridge,2014-08-22 12:07:00,
2014-08-22 08:12:00,66.9,64.8,30.03,NE,51,6.9,8.0,93,0.00,,,0.09,meteobridge,2014-08-22 12:12:00,
2014-08-22 08:17:00,67.1,64.9,30.03,NE,47,11.0,13.0,93,0.00,,,0.09,meteobridge,2014-08-22 12:17:00,
2014-08-22 08:22:00,66.9,64.8,30.03,NE,45,6.9,14.0,93,0.00,,,0.09,meteobridge,2014-08-22 12:22:00,
2014-08-22 08:27:00,67.3,65.1,30.03,ENE,63,8.9,10.0,93,0.00,,,0.09,meteobridge,2014-08-22 12:27:00,
2014-08-22 08:32:00,67.1,64.9,30.03,NE,45,4.9,10.0,93,0.00,,,0.09,meteobridge,2014-08-22 12:32:00,
2014-08-22 08:38:00,67.3,65.1,30.03,NE,45,6.9,9.0,93,0.00,,,0.09,meteobridge,2014-08-22 12:38:00,
2014-08-22 08:43:00,67.5,65.3,30.03,NE,52,4.9,8.0,93,0.00,,,0.09,meteobridge,2014-08-22 12:43:00,
2014-08-22 08:48:00,67.6,65.3,30.03,NE,55,6.9,9.0,92,0.00,,,0.09,meteobridge,2014-08-22 12:48:00,
2014-08-22 08:53:00,67.6,65.3,30.03,NE,43,6.9,9.0,92,0.00,,,0.09,meteobridge,2014-08-22 12:53:00,
2014-08-22 08:58:00,67.6,64.9,30.03,NNE,29,4.0,10.0,91,0.00,,,0.09,meteobridge,2014-08-22 12:58:00,
2014-08-22 09:03:00,67.8,65.5,30.03,ENE,67,4.9,7.0,92,0.00,,,0.09,meteobridge,2014-08-22 13:03:00,
2014-08-22 09:08:00,67.8,65.1,30.03,NE,41,4.9,9.0,91,0.00,,,0.09,meteobridge,2014-08-22 13:08:00,
2014-08-22 09:13:00,67.8,65.1,30.03,North,5,8.9,11.0,91,0.00,,,0.09,meteobridge,2014-08-22 13:13:00,
2014-08-22 09:18:00,68.0,64.9,30.03,ENE,59,6.0,9.0,90,0.00,,,0.09,meteobridge,2014-08-22 13:18:00,
2014-08-22 09:23:00,68.0,64.9,30.03,NE,38,4.0,7.0,90,0.00,,,0.09,meteobridge,2014-08-22 13:23:00,
2014-08-22 09:28:00,68.0,64.6,30.03,ENE,65,8.1,10.0,89,0.00,,,0.09,meteobridge,2014-08-22 13:28:00,
2014-08-22 09:33:00,68.2,64.8,30.03,ENE,57,4.9,9.0,89,0.00,,,0.09,meteobridge,2014-08-22 13:33:00,
2014-08-22 09:38:00,68.5,64.6,30.03,NE,54,6.0,10.0,87,0.00,,,0.09,meteobridge,2014-08-22 13:38:00,
2014-08-22 09:43:00,69.1,65.1,30.03,ENE,62,8.1,10.0,87,0.00,,,0.09,meteobridge,2014-08-22 13:43:00,
2014-08-22 09:48:00,69.3,64.6,30.03,NE,44,6.9,10.0,85,0.00,,,0.09,meteobridge,2014-08-22 13:48:00,
2014-08-22 09:53:00,69.3,64.2,30.03,ENE,58,6.0,11.0,84,0.00,,,0.09,meteobridge,2014-08-22 13:53:00,
2014-08-22 09:58:00,69.3,63.9,30.03,East,86,6.9,10.0,83,0.00,,,0.09,meteobridge,2014-08-22 13:58:00,
2014-08-22 10:03:00,69.4,63.3,30.03,ENE,59,8.9,12.0,81,0.00,,,0.09,meteobridge,2014-08-22 14:03:00,
2014-08-22 10:08:00,70.0,63.5,30.03,ENE,67,8.9,11.0,80,0.00,,,0.09,meteobridge,2014-08-22 14:08:00,
2014-08-22 10:13:00,70.3,63.9,30.03,ENE,76,6.9,11.0,80,0.00,,,0.09,meteobridge,2014-08-22 14:13:00,
2014-08-22 10:18:00,70.5,64.0,30.03,ENE,78,8.9,11.0,80,0.00,,,0.09,meteobridge,2014-08-22 14:18:00,
2014-08-22 10:23:00,70.5,63.3,30.03,ENE,67,4.9,11.0,78,0.00,,,0.09,meteobridge,2014-08-22 14:23:00,
2014-08-22 10:28:00,70.9,63.3,30.03,ENE,72,8.9,9.0,77,0.00,,,0.09,meteobridge,2014-08-22 14:28:00,
2014-08-22 10:34:00,71.2,63.3,30.03,ENE,78,4.9,13.0,76,0.00,,,0.09,meteobridge,2014-08-22 14:34:00,
2014-08-22 10:39:00,71.2,63.0,30.03,ENE,68,4.9,11.0,75,0.00,,,0.09,meteobridge,2014-08-22 14:39:00,
2014-08-22 10:44:00,71.4,63.1,30.03,East,86,10.1,12.0,75,0.00,,,0.09,meteobridge,2014-08-22 14:44:00,
2014-08-22 10:49:00,71.6,63.7,30.03,ENE,58,8.9,13.0,76,0.00,,,0.09,meteobridge,2014-08-22 14:49:00,
2014-08-22 10:54:00,71.2,63.0,30.03,ENE,57,13.0,13.0,75,0.00,,,0.09,meteobridge,2014-08-22 14:54:00,
2014-08-22 10:59:00,71.2,63.3,30.03,NE,39,6.0,11.0,76,0.00,,,0.09,meteobridge,2014-08-22 14:59:00,
2014-08-22 11:04:00,71.4,63.5,30.04,ENE,58,10.1,10.1,76,0.00,,,0.09,meteobridge,2014-08-22 15:04:00,
2014-08-22 11:09:00,71.4,63.5,30.04,NE,52,4.0,8.0,76,0.00,,,0.09,meteobridge,2014-08-22 15:09:00,
2014-08-22 11:14:00,71.8,63.9,30.04,ENE,60,8.9,9.0,76,0.00,,,0.09,meteobridge,2014-08-22 15:14:00,
2014-08-22 11:19:00,71.8,63.5,30.04,North,0,2.0,9.0,75,0.00,,,0.09,meteobridge,2014-08-22 15:19:00,
2014-08-22 11:24:00,71.8,63.5,30.04,ENE,68,4.9,11.0,75,0.00,,,0.09,meteobridge,2014-08-22 15:24:00,
2014-08-22 11:29:00,72.0,63.7,30.04,NE,46,6.0,9.0,75,0.00,,,0.09,meteobridge,2014-08-22 15:29:00,
2014-08-22 11:34:00,72.5,63.7,30.04,NNE,24,6.0,10.0,74,0.00,,,0.09,meteobridge,2014-08-22 15:34:00,
2014-08-22 11:39:00,72.3,63.1,30.04,ENE,65,8.9,11.0,73,0.00,,,0.09,meteobridge,2014-08-22 15:39:00,
2014-08-22 11:44:00,72.3,63.5,30.04,NE,55,6.9,12.0,74,0.00,,,0.09,meteobridge,2014-08-22 15:44:00,
2014-08-22 11:49:00,72.1,64.2,30.04,ENE,61,4.0,10.0,76,0.00,,,0.09,meteobridge,2014-08-22 15:49:00,
2014-08-22 11:54:00,72.0,64.8,30.04,NE,54,4.9,6.0,78,0.00,,,0.09,meteobridge,2014-08-22 15:54:00,
2014-08-22 11:59:00,71.8,64.6,30.04,North,5,2.9,9.0,78,0.00,,,0.09,meteobridge,2014-08-22 15:59:00,
2014-08-22 12:04:00,71.4,64.6,30.04,NE,38,4.0,11.0,79,0.00,,,0.09,meteobridge,2014-08-22 16:04:00,
2014-08-22 12:09:00,71.2,64.4,30.04,NE,53,6.9,9.0,79,0.00,,,0.09,meteobridge,2014-08-22 16:09:00,
2014-08-22 12:14:00,71.2,64.8,30.04,ENE,77,2.9,8.0,80,0.00,,,0.09,meteobridge,2014-08-22 16:14:00,
2014-08-22 12:19:00,71.2,64.4,30.04,NE,46,6.0,9.0,79,0.00,,,0.09,meteobridge,2014-08-22 16:19:00,
2014-08-22 12:24:00,71.4,64.9,30.04,NNE,19,2.9,7.0,80,0.00,,,0.09,meteobridge,2014-08-22 16:24:00,
2014-08-22 12:29:00,71.6,64.8,30.04,NE,34,2.9,4.0,79,0.00,,,0.09,meteobridge,2014-08-22 16:29:00,
2014-08-22 12:34:00,71.6,65.1,30.04,North,5,2.9,5.0,80,0.00,,,0.09,meteobridge,2014-08-22 16:34:00,
2014-08-22 12:39:00,71.4,64.9,30.04,NNE,26,2.9,5.0,80,0.00,,,0.09,meteobridge,2014-08-22 16:39:00,
2014-08-22 12:44:00,71.4,64.9,30.04,North,5,4.9,7.0,80,0.00,,,0.09,meteobridge,2014-08-22 16:44:00,
2014-08-22 12:49:00,71.4,64.9,30.04,North,5,2.0,4.0,80,0.00,,,0.09,meteobridge,2014-08-22 16:49:00,
2014-08-22 12:54:00,71.4,64.9,30.04,North,355,2.0,3.0,80,0.00,,,0.09,meteobridge,2014-08-22 16:54:00,
2014-08-22 12:59:00,71.6,65.5,30.04,NE,34,2.0,4.0,81,0.00,,,0.09,meteobridge,2014-08-22 16:59:00,
2014-08-22 13:05:00,71.6,65.1,30.04,NNE,17,2.0,4.0,80,0.00,,,0.09,meteobridge,2014-08-22 17:05:00,
2014-08-22 13:10:00,71.4,64.9,30.04,NE,46,0.9,2.0,80,0.00,,,0.09,meteobridge,2014-08-22 17:10:00,
2014-08-22 13:15:00,71.1,64.9,30.04,SE,134,6.9,15.0,81,0.00,,,0.09,meteobridge,2014-08-22 17:15:00,
2014-08-22 13:20:00,70.7,65.3,30.04,SE,136,11.0,11.0,83,0.00,,,0.09,meteobridge,2014-08-22 17:20:00,
2014-08-22 13:25:00,70.5,65.1,30.04,SE,140,8.9,12.0,83,0.00,,,0.09,meteobridge,2014-08-22 17:25:00,
2014-08-22 13:30:00,70.3,65.3,30.04,SE,137,12.1,14.0,84,0.00,,,0.09,meteobridge,2014-08-22 17:30:00,
2014-08-22 13:35:00,70.2,65.1,30.04,SSE,164,12.1,15.0,84,0.00,,,0.09,meteobridge,2014-08-22 17:35:00,
2014-08-22 13:40:00,70.2,65.1,30.04,SE,139,12.1,14.0,84,0.00,,,0.09,meteobridge,2014-08-22 17:40:00,
2014-08-22 13:45:00,70.2,65.1,30.04,SE,136,10.1,12.0,84,0.00,,,0.09,meteobridge,2014-08-22 17:45:00,
2014-08-22 13:50:00,70.2,64.8,30.04,SE,145,8.9,13.0,83,0.00,,,0.09,meteobridge,2014-08-22 17:50:00,
2014-08-22 13:55:00,70.3,64.6,30.04,SE,132,11.0,13.0,82,0.00,,,0.09,meteobridge,2014-08-22 17:55:00,
2014-08-22 14:00:00,70.3,64.9,30.04,SE,128,8.9,14.0,83,0.00,,,0.09,meteobridge,2014-08-22 18:00:00,
2014-08-22 14:05:00,70.3,64.9,30.04,SE,135,8.1,15.0,83,0.00,,,0.09,meteobridge,2014-08-22 18:05:00,
2014-08-22 14:10:00,70.7,65.3,30.04,SE,136,12.1,13.0,83,0.00,,,0.09,meteobridge,2014-08-22 18:10:00,
2014-08-22 14:15:00,71.1,64.9,30.04,ESE,123,8.9,15.0,81,0.00,,,0.09,meteobridge,2014-08-22 18:15:00,
2014-08-22 14:20:00,71.4,64.9,30.03,SSE,147,2.9,13.0,80,0.00,,,0.09,meteobridge,2014-08-22 18:20:00,
2014-08-22 14:25:00,72.0,65.1,30.03,SSE,149,10.1,10.1,79,0.00,,,0.09,meteobridge,2014-08-22 18:25:00,
2014-08-22 14:30:00,72.3,65.1,30.03,SE,144,10.1,14.0,78,0.00,,,0.09,meteobridge,2014-08-22 18:30:00,
2014-08-22 14:35:00,72.1,64.6,30.03,SE,142,8.1,11.0,77,0.00,,,0.09,meteobridge,2014-08-22 18:35:00,
2014-08-22 14:40:00,72.3,64.8,30.03,SE,125,6.9,11.0,77,0.00,,,0.09,meteobridge,2014-08-22 18:40:00,
2014-08-22 14:45:00,72.3,64.4,30.03,SE,127,4.0,10.0,76,0.00,,,0.09,meteobridge,2014-08-22 18:45:00,
2014-08-22 14:50:00,72.5,64.6,30.03,SE,146,12.1,12.1,76,0.00,,,0.09,meteobridge,2014-08-22 18:50:00,
2014-08-22 14:55:00,72.3,64.4,30.02,SE,132,13.0,13.0,76,0.00,,,0.09,meteobridge,2014-08-22 18:55:00,
2014-08-22 15:00:00,72.3,64.4,30.02,SE,130,11.0,13.0,76,0.00,,,0.09,meteobridge,2014-08-22 19:00:00,
2014-08-22 15:05:00,72.1,64.2,30.02,ESE,111,8.9,11.0,76,0.00,,,0.09,meteobridge,2014-08-22 19:05:00,
2014-08-22 15:10:00,72.3,63.9,30.02,SE,134,8.9,11.0,75,0.00,,,0.09,meteobridge,2014-08-22 19:10:00,
2014-08-22 15:15:00,72.3,63.9,30.02,SE,138,8.1,11.0,75,0.00,,,0.09,meteobridge,2014-08-22 19:15:00,
2014-08-22 15:20:00,72.3,63.5,30.02,SE,142,12.1,12.1,74,0.00,,,0.09,meteobridge,2014-08-22 19:20:00,
2014-08-22 15:25:00,72.7,63.5,30.02,SE,137,13.0,13.0,73,0.00,,,0.09,meteobridge,2014-08-22 19:25:00,
2014-08-22 15:30:00,72.3,63.9,30.02,SSE,149,10.1,10.1,75,0.00,,,0.09,meteobridge,2014-08-22 19:30:00,
2014-08-22 15:35:00,72.0,64.0,30.02,SE,142,12.1,13.0,76,0.00,,,0.09,meteobridge,2014-08-22 19:35:00,
2014-08-22 15:40:00,71.4,63.5,30.02,SE,140,11.0,14.0,76,0.00,,,0.09,meteobridge,2014-08-22 19:40:00,
2014-08-22 15:45:00,71.4,63.9,30.02,SE,140,12.1,14.0,77,0.00,,,0.09,meteobridge,2014-08-22 19:45:00,
2014-08-22 15:50:00,71.2,64.0,30.02,SE,142,12.1,14.0,78,0.00,,,0.09,meteobridge,2014-08-22 19:50:00,
2014-08-22 15:55:00,71.1,63.9,30.02,SE,145,12.1,15.0,78,0.00,,,0.09,meteobridge,2014-08-22 19:55:00,
2014-08-22 16:01:00,71.1,64.2,30.01,South,171,4.9,14.0,79,0.00,,,0.09,meteobridge,2014-08-22 20:01:00,
2014-08-22 16:06:00,71.2,64.4,30.01,SE,135,11.0,13.0,79,0.00,,,0.09,meteobridge,2014-08-22 20:06:00,
2014-08-22 16:11:00,71.1,64.6,30.01,SE,140,11.0,11.0,80,0.00,,,0.09,meteobridge,2014-08-22 20:11:00,
2014-08-22 16:16:00,71.1,64.6,30.01,SSE,157,8.9,12.0,80,0.00,,,0.09,meteobridge,2014-08-22 20:16:00,
2014-08-22 16:21:00,70.9,64.8,30.01,SSE,155,8.1,10.0,81,0.00,,,0.09,meteobridge,2014-08-22 20:21:00,
2014-08-22 16:26:00,70.7,64.6,30.01,SSE,162,8.1,9.0,81,0.00,,,0.09,meteobridge,2014-08-22 20:26:00,
2014-08-22 16:31:00,70.9,65.1,30.01,SSE,156,8.1,10.0,82,0.00,,,0.09,meteobridge,2014-08-22 20:31:00,
2014-08-22 16:36:00,71.2,64.8,30.01,SE,133,2.9,10.0,80,0.00,,,0.09,meteobridge,2014-08-22 20:36:00,
2014-08-22 16:41:00,72.1,64.6,30.01,East,101,6.0,8.0,77,0.00,,,0.09,meteobridge,2014-08-22 20:41:00,
2014-08-22 16:46:00,72.9,64.0,30.01,SE,130,6.9,9.0,74,0.00,,,0.09,meteobridge,2014-08-22 20:46:00,
2014-08-22 16:51:00,73.0,63.5,30.01,SE,134,4.9,9.0,72,0.00,,,0.09,meteobridge,2014-08-22 20:51:00,
2014-08-22 16:56:00,72.9,63.3,30.01,ESE,118,8.1,10.0,72,0.00,,,0.09,meteobridge,2014-08-22 20:56:00,
2014-08-22 17:01:00,72.5,64.0,30.01,SE,142,8.1,9.0,75,0.00,,,0.09,meteobridge,2014-08-22 21:01:00,
2014-08-22 17:06:00,72.1,64.2,30.01,ESE,119,6.9,9.0,76,0.00,,,0.09,meteobridge,2014-08-22 21:06:00,
2014-08-22 17:11:00,72.1,64.2,30.01,SE,134,8.1,8.1,76,0.00,,,0.09,meteobridge,2014-08-22 21:11:00,
2014-08-22 17:16:00,71.8,64.2,30.01,SE,142,4.0,8.0,77,0.00,,,0.09,meteobridge,2014-08-22 21:16:00,
2014-08-22 17:21:00,71.6,64.4,30.01,SSE,148,4.9,7.0,78,0.00,,,0.09,meteobridge,2014-08-22 21:21:00,
2014-08-22 17:26:00,71.6,64.4,30.01,SE,145,4.9,7.0,78,0.00,,,0.09,meteobridge,2014-08-22 21:26:00,
2014-08-22 17:31:00,71.8,64.6,30.01,ESE,122,2.9,7.0,78,0.00,,,0.09,meteobridge,2014-08-22 21:31:00,
2014-08-22 17:36:00,71.8,64.6,30.02,SE,145,4.0,5.0,78,0.00,,,0.09,meteobridge,2014-08-22 21:36:00,
2014-08-22 17:41:00,71.8,63.9,30.02,SE,132,4.0,8.0,76,0.00,,,0.09,meteobridge,2014-08-22 21:41:00,
2014-08-22 17:46:00,72.1,63.3,30.02,ESE,109,4.0,6.0,74,0.00,,,0.09,meteobridge,2014-08-22 21:46:00,
2014-08-22 17:51:00,72.3,62.8,30.02,ESE,102,4.0,9.0,72,0.00,,,0.09,meteobridge,2014-08-22 21:51:00,
2014-08-22 17:56:00,72.3,62.8,30.02,East,98,2.9,4.0,72,0.00,,,0.09,meteobridge,2014-08-22 21:56:00,
2014-08-22 18:01:00,72.3,62.8,30.02,ENE,78,2.9,6.0,72,0.00,,,0.09,meteobridge,2014-08-22 22:01:00,
2014-08-22 18:06:00,72.3,62.8,30.02,East,85,4.0,6.0,72,0.00,,,0.09,meteobridge,2014-08-22 22:06:00,
2014-08-22 18:11:00,72.3,62.8,30.02,ESE,105,4.0,7.0,72,0.00,,,0.09,meteobridge,2014-08-22 22:11:00,
2014-08-22 18:16:00,72.1,63.0,30.03,SSE,154,6.0,8.0,73,0.00,,,0.09,meteobridge,2014-08-22 22:16:00,
2014-08-22 18:21:00,72.0,63.1,30.03,ESE,119,4.0,7.0,74,0.00,,,0.09,meteobridge,2014-08-22 22:21:00,
2014-08-22 18:26:00,72.0,63.1,30.03,East,83,2.0,5.0,74,0.00,,,0.09,meteobridge,2014-08-22 22:26:00,
2014-08-22 18:31:00,72.0,62.8,30.03,ESE,117,6.9,7.0,73,0.00,,,0.09,meteobridge,2014-08-22 22:31:00,
2014-08-22 18:36:00,71.8,62.2,30.03,ESE,123,2.9,8.0,72,0.00,,,0.09,meteobridge,2014-08-22 22:36:00,
2014-08-22 18:41:00,71.8,62.2,30.03,East,101,2.9,6.0,72,0.00,,,0.09,meteobridge,2014-08-22 22:41:00,
2014-08-22 18:46:00,71.6,62.4,30.03,East,94,2.0,6.0,73,0.00,,,0.09,meteobridge,2014-08-22 22:46:00,
2014-08-22 18:51:00,71.4,62.2,30.03,ESE,112,0.9,7.0,73,0.00,,,0.09,meteobridge,2014-08-22 22:51:00,
2014-08-22 18:56:00,71.2,62.6,30.03,ENE,71,2.0,4.0,74,0.00,,,0.09,meteobridge,2014-08-22 22:56:00,
2014-08-22 19:01:00,71.2,62.6,30.03,East,80,2.9,4.0,74,0.00,,,0.09,meteobridge,2014-08-22 23:01:00,
2014-08-22 19:06:00,71.1,62.8,30.03,East,86,2.9,3.0,75,0.00,,,0.09,meteobridge,2014-08-22 23:06:00,
2014-08-22 19:11:00,71.1,62.8,30.03,ESE,107,2.9,3.0,75,0.00,,,0.09,meteobridge,2014-08-22 23:11:00,
2014-08-22 19:17:00,70.9,62.6,30.03,East,91,2.0,6.0,75,0.00,,,0.09,meteobridge,2014-08-22 23:17:00,
2014-08-22 19:22:00,70.7,62.4,30.03,ESE,107,4.0,6.0,75,0.00,,,0.09,meteobridge,2014-08-22 23:22:00,
2014-08-22 19:27:00,70.5,62.2,30.03,ESE,109,6.0,8.0,75,0.00,,,0.09,meteobridge,2014-08-22 23:27:00,
2014-08-22 19:32:00,70.5,62.2,30.03,East,101,4.0,7.0,75,0.00,,,0.09,meteobridge,2014-08-22 23:32:00,
2014-08-22 19:37:00,70.5,62.2,30.03,ENE,74,2.0,8.0,75,0.00,,,0.09,meteobridge,2014-08-22 23:37:00,
2014-08-22 19:42:00,70.3,62.4,30.03,ENE,57,4.0,8.0,76,0.00,,,0.09,meteobridge,2014-08-22 23:42:00,
2014-08-22 19:47:00,70.3,62.1,30.03,ENE,74,6.9,11.0,75,0.00,,,0.09,meteobridge,2014-08-22 23:47:00,
2014-08-22 19:52:00,70.3,62.1,30.03,NE,55,6.0,11.0,75,0.00,,,0.09,meteobridge,2014-08-22 23:52:00,
2014-08-22 19:57:00,70.3,62.4,30.03,ENE,62,11.0,11.0,76,0.00,,,0.09,meteobridge,2014-08-22 23:57:00,
2014-08-22 20:02:00,70.2,62.2,30.03,ENE,60,8.9,9.0,76,0.00,,,0.09,meteobridge,2014-08-23 00:02:00,